Rapid City Regional Airport Rapid City US
ICAO: KRAP
IATA: RAP
Category: Medium
Scheduled Services: Yes

Elevation: 3204 ft
TransAlt. 18000 ft.

Airport Communications:
ELLSWORTH APP:119.5
ASOS:118.525
CTAF:125.85
ELLSWORTH DEP:119.5
GND:121.9
ARNG OPS:41.5
HURON RDO:122.65
TWR:125.85
UNICOM:122.95

KRAP Zoom In..

Runways:

(A) RW 05 length 3601 ft width 75 ft
---- / hdg 54

(B) RW 14 length 8701 ft width 150 ft
---- / hdg 144

(C) RW 23 length 3601 ft width 75 ft
---- / hdg 234

(D) RW 32 length 8701 ft width 150 ft
ILS 109.30 / hdg 324

Location; KRAP
Day. 29 / Time. 20.52 Zulu
* Altimeter: 30.18
* Temperature: 21° c. 69.8°f.
* Wind from: 130° Speed 08 kn with Gusts up to 20 kn.
Dewpoint: 07° c.
Visibility: 10 Statute Miles.
Clouds: Clear (automated report).

KRAP 292052Z 13008G20KT 100V160 10SM CLR 21/07 A3018 RMK AO2 SLP210 T02110072 56013


Wind From 130°
Speed 08 kn.

 
 
jpsmedia worldairports.se 2020   terms of use